sensor_id;sensor_type;location;lat;lon;timestamp;P1;durP1;ratioP1;P2;durP2;ratioP2
25391;SDS011;13329;48.402;11.718;2022-07-18T00:00:12;3.93;;;1.77;;
25391;SDS011;13329;48.402;11.718;2022-07-18T00:02:37;4.93;;;1.40;;
25391;SDS011;13329;48.402;11.718;2022-07-18T00:05:03;2.90;;;1.53;;
25391;SDS011;13329;48.402;11.718;2022-07-18T00:07:28;1.70;;;1.25;;
25391;SDS011;13329;48.402;11.718;2022-07-18T00:09:54;1.70;;;1.50;;
25391;SDS011;13329;48.402;11.718;2022-07-18T00:12:19;2.10;;;1.47;;
25391;SDS011;13329;48.402;11.718;2022-07-18T00:14:44;2.03;;;1.40;;
25391;SDS011;13329;48.402;11.718;2022-07-18T00:17:09;4.17;;;1.80;;
25391;SDS011;13329;48.402;11.718;2022-07-18T00:19:34;2.37;;;1.60;;
25391;SDS011;13329;48.402;11.718;2022-07-18T00:22:00;2.60;;;1.65;;
25391;SDS011;13329;48.402;11.718;2022-07-18T00:24:26;2.55;;;1.63;;
25391;SDS011;13329;48.402;11.718;2022-07-18T00:26:51;2.13;;;1.65;;
25391;SDS011;13329;48.402;11.718;2022-07-18T00:29:16;2.87;;;1.67;;
25391;SDS011;13329;48.402;11.718;2022-07-18T00:31:41;2.00;;;1.47;;
25391;SDS011;13329;48.402;11.718;2022-07-18T00:34:06;2.67;;;1.83;;
25391;SDS011;13329;48.402;11.718;2022-07-18T00:36:32;2.70;;;1.47;;
25391;SDS011;13329;48.402;11.718;2022-07-18T00:38:57;3.38;;;1.77;;
25391;SDS011;13329;48.402;11.718;2022-07-18T00:41:22;1.85;;;1.45;;
25391;SDS011;13329;48.402;11.718;2022-07-18T00:43:48;3.15;;;1.58;;
25391;SDS011;13329;48.402;11.718;2022-07-18T00:46:13;1.77;;;1.60;;
25391;SDS011;13329;48.402;11.718;2022-07-18T00:48:39;2.33;;;1.60;;
25391;SDS011;13329;48.402;11.718;2022-07-18T00:51:04;2.30;;;1.55;;
25391;SDS011;13329;48.402;11.718;2022-07-18T00:53:29;8.13;;;1.95;;
25391;SDS011;13329;48.402;11.718;2022-07-18T00:55:54;1.97;;;1.53;;
25391;SDS011;13329;48.402;11.718;2022-07-18T00:58:20;2.85;;;1.80;;
25391;SDS011;13329;48.402;11.718;2022-07-18T01:00:45;2.10;;;1.65;;
25391;SDS011;13329;48.402;11.718;2022-07-18T01:03:29;2.53;;;1.67;;
25391;SDS011;13329;48.402;11.718;2022-07-18T01:05:54;1.70;;;1.60;;
25391;SDS011;13329;48.402;11.718;2022-07-18T01:08:20;2.20;;;1.80;;
25391;SDS011;13329;48.402;11.718;2022-07-18T01:10:45;2.75;;;1.70;;
25391;SDS011;13329;48.402;11.718;2022-07-18T01:13:10;2.17;;;1.50;;
25391;SDS011;13329;48.402;11.718;2022-07-18T01:15:35;2.53;;;1.60;;
25391;SDS011;13329;48.402;11.718;2022-07-18T01:18:01;2.65;;;1.80;;
25391;SDS011;13329;48.402;11.718;2022-07-18T01:20:27;2.65;;;1.83;;
25391;SDS011;13329;48.402;11.718;2022-07-18T01:22:52;2.20;;;1.50;;
25391;SDS011;13329;48.402;11.718;2022-07-18T01:25:18;4.00;;;1.60;;
25391;SDS011;13329;48.402;11.718;2022-07-18T01:27:43;2.40;;;1.57;;
25391;SDS011;13329;48.402;11.718;2022-07-18T01:30:08;1.97;;;1.43;;
25391;SDS011;13329;48.402;11.718;2022-07-18T01:32:33;2.38;;;1.50;;
25391;SDS011;13329;48.402;11.718;2022-07-18T01:34:58;2.77;;;1.70;;
25391;SDS011;13329;48.402;11.718;2022-07-18T01:37:24;2.47;;;1.87;;
25391;SDS011;13329;48.402;11.718;2022-07-18T01:39:49;2.77;;;1.90;;
25391;SDS011;13329;48.402;11.718;2022-07-18T01:42:14;3.13;;;1.35;;
25391;SDS011;13329;48.402;11.718;2022-07-18T01:44:39;2.00;;;1.50;;
25391;SDS011;13329;48.402;11.718;2022-07-18T01:47:05;2.73;;;1.67;;
25391;SDS011;13329;48.402;11.718;2022-07-18T01:49:31;3.05;;;1.80;;
25391;SDS011;13329;48.402;11.718;2022-07-18T01:51:57;2.05;;;1.50;;
25391;SDS011;13329;48.402;11.718;2022-07-18T01:54:23;1.70;;;1.50;;
25391;SDS011;13329;48.402;11.718;2022-07-18T01:56:49;3.05;;;1.67;;
25391;SDS011;13329;48.402;11.718;2022-07-18T01:59:14;2.13;;;1.52;;
25391;SDS011;13329;48.402;11.718;2022-07-18T02:01:39;1.70;;;1.30;;
25391;SDS011;13329;48.402;11.718;2022-07-18T02:04:04;2.63;;;1.83;;
25391;SDS011;13329;48.402;11.718;2022-07-18T02:06:29;2.63;;;1.83;;
25391;SDS011;13329;48.402;11.718;2022-07-18T02:08:55;5.53;;;1.90;;
25391;SDS011;13329;48.402;11.718;2022-07-18T02:11:20;4.67;;;1.80;;
25391;SDS011;13329;48.402;11.718;2022-07-18T02:13:45;2.45;;;1.70;;
25391;SDS011;13329;48.402;11.718;2022-07-18T02:16:10;2.90;;;1.90;;
25391;SDS011;13329;48.402;11.718;2022-07-18T02:18:35;2.20;;;1.60;;
25391;SDS011;13329;48.402;11.718;2022-07-18T02:21:01;2.57;;;1.60;;
25391;SDS011;13329;48.402;11.718;2022-07-18T02:23:26;1.90;;;1.70;;
25391;SDS011;13329;48.402;11.718;2022-07-18T02:25:52;1.70;;;1.40;;
25391;SDS011;13329;48.402;11.718;2022-07-18T02:28:17;2.93;;;1.60;;
25391;SDS011;13329;48.402;11.718;2022-07-18T02:30:42;1.83;;;1.60;;
25391;SDS011;13329;48.402;11.718;2022-07-18T02:33:07;2.07;;;1.80;;
25391;SDS011;13329;48.402;11.718;2022-07-18T02:35:33;2.15;;;1.67;;
25391;SDS011;13329;48.402;11.718;2022-07-18T02:37:58;2.23;;;1.73;;
25391;SDS011;13329;48.402;11.718;2022-07-18T02:40:23;2.55;;;1.80;;
25391;SDS011;13329;48.402;11.718;2022-07-18T02:42:48;2.53;;;1.63;;
25391;SDS011;13329;48.402;11.718;2022-07-18T02:45:13;2.83;;;1.67;;
25391;SDS011;13329;48.402;11.718;2022-07-18T02:47:39;1.80;;;1.50;;
25391;SDS011;13329;48.402;11.718;2022-07-18T02:50:04;3.55;;;2.03;;
25391;SDS011;13329;48.402;11.718;2022-07-18T02:52:29;2.15;;;1.58;;
25391;SDS011;13329;48.402;11.718;2022-07-18T02:54:54;2.60;;;1.57;;
25391;SDS011;13329;48.402;11.718;2022-07-18T02:57:21;3.50;;;1.83;;
25391;SDS011;13329;48.402;11.718;2022-07-18T02:59:46;2.80;;;1.85;;
25391;SDS011;13329;48.402;11.718;2022-07-18T03:02:12;2.63;;;1.50;;
25391;SDS011;13329;48.402;11.718;2022-07-18T03:04:37;4.37;;;1.77;;
25391;SDS011;13329;48.402;11.718;2022-07-18T03:07:02;4.23;;;1.50;;
25391;SDS011;13329;48.402;11.718;2022-07-18T03:09:27;1.80;;;1.70;;
25391;SDS011;13329;48.402;11.718;2022-07-18T03:11:53;2.67;;;1.77;;
25391;SDS011;13329;48.402;11.718;2022-07-18T03:14:19;2.88;;;1.83;;
25391;SDS011;13329;48.402;11.718;2022-07-18T03:16:44;3.45;;;1.98;;
25391;SDS011;13329;48.402;11.718;2022-07-18T03:19:09;3.37;;;1.60;;
25391;SDS011;13329;48.402;11.718;2022-07-18T03:21:35;3.40;;;1.83;;
25391;SDS011;13329;48.402;11.718;2022-07-18T03:24:00;4.90;;;1.93;;
25391;SDS011;13329;48.402;11.718;2022-07-18T03:26:25;2.77;;;1.70;;
25391;SDS011;13329;48.402;11.718;2022-07-18T03:28:50;2.90;;;1.70;;
25391;SDS011;13329;48.402;11.718;2022-07-18T03:31:15;2.22;;;1.80;;
25391;SDS011;13329;48.402;11.718;2022-07-18T03:33:40;3.37;;;1.60;;
25391;SDS011;13329;48.402;11.718;2022-07-18T03:36:06;2.97;;;1.63;;
25391;SDS011;13329;48.402;11.718;2022-07-18T03:38:31;2.53;;;1.90;;
25391;SDS011;13329;48.402;11.718;2022-07-18T03:40:56;1.80;;;1.55;;
25391;SDS011;13329;48.402;11.718;2022-07-18T03:43:21;2.03;;;1.53;;
25391;SDS011;13329;48.402;11.718;2022-07-18T03:45:47;2.00;;;1.50;;
25391;SDS011;13329;48.402;11.718;2022-07-18T03:48:12;3.38;;;1.73;;
25391;SDS011;13329;48.402;11.718;2022-07-18T03:50:37;2.88;;;1.80;;
25391;SDS011;13329;48.402;11.718;2022-07-18T03:53:02;3.77;;;1.73;;
25391;SDS011;13329;48.402;11.718;2022-07-18T03:55:27;2.00;;;1.53;;
25391;SDS011;13329;48.402;11.718;2022-07-18T03:57:53;2.50;;;1.90;;
25391;SDS011;13329;48.402;11.718;2022-07-18T04:00:18;3.23;;;1.77;;
25391;SDS011;13329;48.402;11.718;2022-07-18T04:02:44;2.00;;;1.60;;
25391;SDS011;13329;48.402;11.718;2022-07-18T04:05:10;3.53;;;1.92;;
25391;SDS011;13329;48.402;11.718;2022-07-18T04:07:35;2.03;;;1.60;;
25391;SDS011;13329;48.402;11.718;2022-07-18T04:10:01;3.38;;;1.83;;
25391;SDS011;13329;48.402;11.718;2022-07-18T04:12:26;4.68;;;2.03;;
25391;SDS011;13329;48.402;11.718;2022-07-18T04:14:52;4.13;;;1.80;;
25391;SDS011;13329;48.402;11.718;2022-07-18T04:17:17;1.75;;;1.48;;
25391;SDS011;13329;48.402;11.718;2022-07-18T04:19:42;1.90;;;1.40;;
25391;SDS011;13329;48.402;11.718;2022-07-18T04:22:07;2.97;;;1.90;;
25391;SDS011;13329;48.402;11.718;2022-07-18T04:24:32;2.63;;;1.75;;
25391;SDS011;13329;48.402;11.718;2022-07-18T04:26:58;2.87;;;1.70;;
25391;SDS011;13329;48.402;11.718;2022-07-18T04:29:23;4.63;;;1.93;;
25391;SDS011;13329;48.402;11.718;2022-07-18T04:31:48;4.97;;;2.13;;
25391;SDS011;13329;48.402;11.718;2022-07-18T04:34:13;4.27;;;1.97;;
25391;SDS011;13329;48.402;11.718;2022-07-18T04:36:38;2.70;;;1.70;;
25391;SDS011;13329;48.402;11.718;2022-07-18T04:39:04;2.53;;;1.80;;
25391;SDS011;13329;48.402;11.718;2022-07-18T04:41:29;3.23;;;1.90;;
25391;SDS011;13329;48.402;11.718;2022-07-18T04:43:54;2.37;;;1.80;;
25391;SDS011;13329;48.402;11.718;2022-07-18T04:46:19;3.70;;;1.80;;
25391;SDS011;13329;48.402;11.718;2022-07-18T04:48:44;2.47;;;1.73;;
25391;SDS011;13329;48.402;11.718;2022-07-18T04:51:10;6.88;;;2.25;;
25391;SDS011;13329;48.402;11.718;2022-07-18T04:53:35;2.63;;;1.73;;
25391;SDS011;13329;48.402;11.718;2022-07-18T04:56:00;3.37;;;1.50;;
25391;SDS011;13329;48.402;11.718;2022-07-18T04:58:25;3.20;;;1.90;;
25391;SDS011;13329;48.402;11.718;2022-07-18T05:00:50;2.87;;;1.70;;
25391;SDS011;13329;48.402;11.718;2022-07-18T05:03:16;2.72;;;1.90;;
25391;SDS011;13329;48.402;11.718;2022-07-18T05:05:44;2.28;;;1.70;;
25391;SDS011;13329;48.402;11.718;2022-07-18T05:08:09;5.78;;;1.90;;
25391;SDS011;13329;48.402;11.718;2022-07-18T05:10:37;3.15;;;1.90;;
25391;SDS011;13329;48.402;11.718;2022-07-18T05:13:02;6.63;;;1.80;;
25391;SDS011;13329;48.402;11.718;2022-07-18T05:15:27;3.30;;;2.20;;
25391;SDS011;13329;48.402;11.718;2022-07-18T05:17:52;2.73;;;1.97;;
25391;SDS011;13329;48.402;11.718;2022-07-18T05:20:18;2.83;;;1.77;;
25391;SDS011;13329;48.402;11.718;2022-07-18T05:22:44;2.92;;;1.80;;
25391;SDS011;13329;48.402;11.718;2022-07-18T05:25:10;2.97;;;2.20;;
25391;SDS011;13329;48.402;11.718;2022-07-18T05:27:35;4.55;;;1.80;;
25391;SDS011;13329;48.402;11.718;2022-07-18T05:30:01;5.45;;;2.35;;
25391;SDS011;13329;48.402;11.718;2022-07-18T05:32:27;8.02;;;2.10;;
25391;SDS011;13329;48.402;11.718;2022-07-18T05:34:52;3.50;;;2.40;;
25391;SDS011;13329;48.402;11.718;2022-07-18T05:37:17;3.80;;;2.00;;
25391;SDS011;13329;48.402;11.718;2022-07-18T05:39:42;3.97;;;2.27;;
25391;SDS011;13329;48.402;11.718;2022-07-18T05:42:07;5.43;;;2.60;;
25391;SDS011;13329;48.402;11.718;2022-07-18T05:44:33;4.07;;;1.97;;
25391;SDS011;13329;48.402;11.718;2022-07-18T05:46:58;4.30;;;2.50;;
25391;SDS011;13329;48.402;11.718;2022-07-18T05:49:23;4.30;;;2.30;;
25391;SDS011;13329;48.402;11.718;2022-07-18T05:51:48;4.63;;;2.43;;
25391;SDS011;13329;48.402;11.718;2022-07-18T05:54:13;3.27;;;2.20;;
25391;SDS011;13329;48.402;11.718;2022-07-18T05:56:43;2.55;;;2.00;;
25391;SDS011;13329;48.402;11.718;2022-07-18T05:59:08;5.47;;;2.53;;
25391;SDS011;13329;48.402;11.718;2022-07-18T06:01:33;5.70;;;2.60;;
25391;SDS011;13329;48.402;11.718;2022-07-18T06:03:59;4.47;;;2.77;;
25391;SDS011;13329;48.402;11.718;2022-07-18T06:06:24;4.73;;;2.93;;
25391;SDS011;13329;48.402;11.718;2022-07-18T06:08:49;5.35;;;2.47;;
25391;SDS011;13329;48.402;11.718;2022-07-18T06:11:15;4.23;;;2.53;;
25391;SDS011;13329;48.402;11.718;2022-07-18T06:13:40;6.40;;;2.40;;
25391;SDS011;13329;48.402;11.718;2022-07-18T06:16:07;5.03;;;3.03;;
25391;SDS011;13329;48.402;11.718;2022-07-18T06:18:33;5.45;;;3.20;;
25391;SDS011;13329;48.402;11.718;2022-07-18T06:21:00;5.60;;;2.58;;
25391;SDS011;13329;48.402;11.718;2022-07-18T06:23:25;5.55;;;2.83;;
25391;SDS011;13329;48.402;11.718;2022-07-18T06:25:50;6.50;;;2.50;;
25391;SDS011;13329;48.402;11.718;2022-07-18T06:28:15;3.45;;;2.13;;
25391;SDS011;13329;48.402;11.718;2022-07-18T06:30:40;4.25;;;2.55;;
25391;SDS011;13329;48.402;11.718;2022-07-18T06:33:06;4.13;;;2.60;;
25391;SDS011;13329;48.402;11.718;2022-07-18T06:35:32;6.18;;;2.72;;
25391;SDS011;13329;48.402;11.718;2022-07-18T06:37:58;4.28;;;2.35;;
25391;SDS011;13329;48.402;11.718;2022-07-18T06:40:23;4.60;;;2.65;;
25391;SDS011;13329;48.402;11.718;2022-07-18T06:42:50;6.35;;;2.38;;
25391;SDS011;13329;48.402;11.718;2022-07-18T06:45:15;2.28;;;1.90;;
25391;SDS011;13329;48.402;11.718;2022-07-18T06:47:40;9.50;;;2.50;;
25391;SDS011;13329;48.402;11.718;2022-07-18T06:50:06;4.47;;;2.10;;
25391;SDS011;13329;48.402;11.718;2022-07-18T06:52:31;3.75;;;2.30;;
25391;SDS011;13329;48.402;11.718;2022-07-18T06:54:56;2.67;;;1.90;;
25391;SDS011;13329;48.402;11.718;2022-07-18T06:57:22;3.87;;;2.30;;
25391;SDS011;13329;48.402;11.718;2022-07-18T06:59:47;2.92;;;2.05;;
25391;SDS011;13329;48.402;11.718;2022-07-18T07:02:12;4.17;;;2.23;;
25391;SDS011;13329;48.402;11.718;2022-07-18T07:04:37;4.45;;;2.13;;
25391;SDS011;13329;48.402;11.718;2022-07-18T07:07:02;2.80;;;2.10;;
25391;SDS011;13329;48.402;11.718;2022-07-18T07:09:28;2.83;;;1.90;;
25391;SDS011;13329;48.402;11.718;2022-07-18T07:11:53;4.80;;;2.25;;
25391;SDS011;13329;48.402;11.718;2022-07-18T07:14:18;3.17;;;1.90;;
25391;SDS011;13329;48.402;11.718;2022-07-18T07:16:43;3.00;;;1.83;;
25391;SDS011;13329;48.402;11.718;2022-07-18T07:19:08;3.03;;;2.10;;
25391;SDS011;13329;48.402;11.718;2022-07-18T07:21:34;3.20;;;2.07;;
25391;SDS011;13329;48.402;11.718;2022-07-18T07:23:59;3.20;;;2.00;;
25391;SDS011;13329;48.402;11.718;2022-07-18T07:26:24;2.73;;;1.97;;
25391;SDS011;13329;48.402;11.718;2022-07-18T07:28:49;4.00;;;2.10;;
25391;SDS011;13329;48.402;11.718;2022-07-18T07:31:14;3.43;;;2.03;;
25391;SDS011;13329;48.402;11.718;2022-07-18T07:33:39;3.77;;;1.97;;
25391;SDS011;13329;48.402;11.718;2022-07-18T07:36:05;3.60;;;2.00;;
25391;SDS011;13329;48.402;11.718;2022-07-18T07:38:30;4.40;;;1.90;;
25391;SDS011;13329;48.402;11.718;2022-07-18T07:40:56;6.90;;;2.03;;
25391;SDS011;13329;48.402;11.718;2022-07-18T07:43:21;4.07;;;1.80;;
25391;SDS011;13329;48.402;11.718;2022-07-18T07:45:47;2.60;;;1.80;;
25391;SDS011;13329;48.402;11.718;2022-07-18T07:48:13;5.03;;;1.90;;
25391;SDS011;13329;48.402;11.718;2022-07-18T07:50:39;3.60;;;1.83;;
25391;SDS011;13329;48.402;11.718;2022-07-18T07:53:04;2.23;;;1.87;;
25391;SDS011;13329;48.402;11.718;2022-07-18T07:55:29;4.22;;;2.13;;
25391;SDS011;13329;48.402;11.718;2022-07-18T07:57:54;2.03;;;1.70;;
25391;SDS011;13329;48.402;11.718;2022-07-18T08:00:20;2.10;;;1.37;;
25391;SDS011;13329;48.402;11.718;2022-07-18T08:03:04;3.38;;;1.70;;
25391;SDS011;13329;48.402;11.718;2022-07-18T08:05:31;4.22;;;1.80;;
25391;SDS011;13329;48.402;11.718;2022-07-18T08:07:57;2.05;;;1.45;;
25391;SDS011;13329;48.402;11.718;2022-07-18T08:10:23;2.70;;;1.60;;
25391;SDS011;13329;48.402;11.718;2022-07-18T08:12:48;2.35;;;1.73;;
25391;SDS011;13329;48.402;11.718;2022-07-18T08:15:13;2.20;;;1.50;;
25391;SDS011;13329;48.402;11.718;2022-07-18T08:17:39;3.38;;;1.67;;
25391;SDS011;13329;48.402;11.718;2022-07-18T08:20:04;2.05;;;1.48;;
25391;SDS011;13329;48.402;11.718;2022-07-18T08:22:30;2.47;;;1.27;;
25391;SDS011;13329;48.402;11.718;2022-07-18T08:24:55;2.40;;;1.50;;
25391;SDS011;13329;48.402;11.718;2022-07-18T08:27:21;3.25;;;1.48;;
25391;SDS011;13329;48.402;11.718;2022-07-18T08:29:46;4.57;;;1.60;;
25391;SDS011;13329;48.402;11.718;2022-07-18T08:32:11;2.37;;;1.50;;
25391;SDS011;13329;48.402;11.718;2022-07-18T08:34:38;5.88;;;1.48;;
25391;SDS011;13329;48.402;11.718;2022-07-18T08:37:03;3.63;;;1.30;;
25391;SDS011;13329;48.402;11.718;2022-07-18T08:39:28;1.90;;;1.30;;
25391;SDS011;13329;48.402;11.718;2022-07-18T08:41:53;2.43;;;1.40;;
25391;SDS011;13329;48.402;11.718;2022-07-18T08:44:19;1.98;;;1.30;;
25391;SDS011;13329;48.402;11.718;2022-07-18T08:46:48;3.08;;;1.25;;
25391;SDS011;13329;48.402;11.718;2022-07-18T08:49:14;2.80;;;1.40;;
25391;SDS011;13329;48.402;11.718;2022-07-18T08:51:39;1.52;;;1.20;;
25391;SDS011;13329;48.402;11.718;2022-07-18T08:54:04;3.90;;;1.60;;
25391;SDS011;13329;48.402;11.718;2022-07-18T08:56:29;1.20;;;1.10;;
25391;SDS011;13329;48.402;11.718;2022-07-18T08:58:55;1.97;;;1.20;;
25391;SDS011;13329;48.402;11.718;2022-07-18T09:01:20;2.00;;;1.30;;
25391;SDS011;13329;48.402;11.718;2022-07-18T09:03:45;2.00;;;1.30;;
25391;SDS011;13329;48.402;11.718;2022-07-18T09:06:40;1.50;;;1.13;;
25391;SDS011;13329;48.402;11.718;2022-07-18T09:09:05;1.85;;;1.10;;
25391;SDS011;13329;48.402;11.718;2022-07-18T09:11:30;1.60;;;1.15;;
25391;SDS011;13329;48.402;11.718;2022-07-18T09:13:56;2.37;;;1.27;;
25391;SDS011;13329;48.402;11.718;2022-07-18T09:16:21;3.50;;;1.10;;
25391;SDS011;13329;48.402;11.718;2022-07-18T09:18:47;2.17;;;1.20;;
25391;SDS011;13329;48.402;11.718;2022-07-18T09:21:22;2.30;;;1.10;;
25391;SDS011;13329;48.402;11.718;2022-07-18T09:23:48;1.80;;;0.98;;
25391;SDS011;13329;48.402;11.718;2022-07-18T09:26:17;1.80;;;1.30;;
25391;SDS011;13329;48.402;11.718;2022-07-18T09:28:58;1.55;;;0.95;;
25391;SDS011;13329;48.402;11.718;2022-07-18T09:31:23;5.13;;;1.33;;
25391;SDS011;13329;48.402;11.718;2022-07-18T09:33:56;1.42;;;1.00;;
25391;SDS011;13329;48.402;11.718;2022-07-18T09:36:22;1.55;;;1.08;;
25391;SDS011;13329;48.402;11.718;2022-07-18T09:38:47;2.35;;;1.13;;
25391;SDS011;13329;48.402;11.718;2022-07-18T09:41:12;1.65;;;1.20;;
25391;SDS011;13329;48.402;11.718;2022-07-18T09:43:38;1.60;;;1.33;;
25391;SDS011;13329;48.402;11.718;2022-07-18T09:46:04;1.90;;;1.10;;
25391;SDS011;13329;48.402;11.718;2022-07-18T09:48:29;2.92;;;1.35;;
25391;SDS011;13329;48.402;11.718;2022-07-18T09:50:55;1.67;;;1.00;;
25391;SDS011;13329;48.402;11.718;2022-07-18T09:55:52;3.05;;;1.10;;
25391;SDS011;13329;48.402;11.718;2022-07-18T09:58:19;1.42;;;0.95;;
25391;SDS011;13329;48.402;11.718;2022-07-18T10:00:46;3.33;;;1.40;;
25391;SDS011;13329;48.402;11.718;2022-07-18T10:03:11;1.83;;;1.17;;
25391;SDS011;13329;48.402;11.718;2022-07-18T10:05:37;1.25;;;1.00;;
25391;SDS011;13329;48.402;11.718;2022-07-18T10:08:04;1.90;;;1.10;;
25391;SDS011;13329;48.402;11.718;2022-07-18T10:10:30;1.52;;;1.20;;
25391;SDS011;13329;48.402;11.718;2022-07-18T10:12:55;3.70;;;1.03;;
25391;SDS011;13329;48.402;11.718;2022-07-18T10:15:21;3.70;;;1.08;;
25391;SDS011;13329;48.402;11.718;2022-07-18T10:17:47;2.38;;;0.80;;
25391;SDS011;13329;48.402;11.718;2022-07-18T10:20:13;1.10;;;0.80;;
25391;SDS011;13329;48.402;11.718;2022-07-18T10:22:41;1.67;;;0.97;;
25391;SDS011;13329;48.402;11.718;2022-07-18T10:25:07;0.90;;;0.82;;
25391;SDS011;13329;48.402;11.718;2022-07-18T10:27:47;3.47;;;0.90;;
25391;SDS011;13329;48.402;11.718;2022-07-18T10:30:13;3.05;;;1.08;;
25391;SDS011;13329;48.402;11.718;2022-07-18T10:32:39;4.72;;;0.88;;
25391;SDS011;13329;48.402;11.718;2022-07-18T10:35:04;1.42;;;0.95;;
25391;SDS011;13329;48.402;11.718;2022-07-18T10:37:31;2.45;;;1.00;;
25391;SDS011;13329;48.402;11.718;2022-07-18T10:40:01;2.67;;;0.75;;
25391;SDS011;13329;48.402;11.718;2022-07-18T10:42:44;1.98;;;0.90;;
25391;SDS011;13329;48.402;11.718;2022-07-18T10:47:53;0.75;;;0.70;;
25391;SDS011;13329;48.402;11.718;2022-07-18T10:50:18;1.00;;;0.80;;
25391;SDS011;13329;48.402;11.718;2022-07-18T10:55:25;1.52;;;1.10;;
25391;SDS011;13329;48.402;11.718;2022-07-18T11:00:24;5.55;;;1.02;;
25391;SDS011;13329;48.402;11.718;2022-07-18T11:05:34;1.35;;;0.90;;
25391;SDS011;13329;48.402;11.718;2022-07-18T11:11:02;3.97;;;1.25;;
25391;SDS011;13329;48.402;11.718;2022-07-18T11:18:22;3.13;;;1.00;;
25391;SDS011;13329;48.402;11.718;2022-07-18T11:20:47;1.63;;;0.93;;
25391;SDS011;13329;48.402;11.718;2022-07-18T11:23:23;1.25;;;0.90;;
25391;SDS011;13329;48.402;11.718;2022-07-18T11:25:49;3.00;;;1.05;;
25391;SDS011;13329;48.402;11.718;2022-07-18T11:28:14;1.00;;;0.80;;
25391;SDS011;13329;48.402;11.718;2022-07-18T11:30:39;1.67;;;0.80;;
25391;SDS011;13329;48.402;11.718;2022-07-18T11:33:05;4.07;;;0.90;;
25391;SDS011;13329;48.402;11.718;2022-07-18T11:35:31;1.83;;;1.17;;
25391;SDS011;13329;48.402;11.718;2022-07-18T11:37:56;1.67;;;0.97;;
25391;SDS011;13329;48.402;11.718;2022-07-18T11:40:21;1.35;;;0.80;;
25391;SDS011;13329;48.402;11.718;2022-07-18T11:42:47;1.45;;;0.82;;
25391;SDS011;13329;48.402;11.718;2022-07-18T11:45:13;1.27;;;1.00;;
25391;SDS011;13329;48.402;11.718;2022-07-18T11:47:46;1.63;;;0.80;;
25391;SDS011;13329;48.402;11.718;2022-07-18T11:50:12;1.70;;;0.82;;
25391;SDS011;13329;48.402;11.718;2022-07-18T11:52:37;1.37;;;0.80;;
25391;SDS011;13329;48.402;11.718;2022-07-18T11:55:02;1.88;;;1.00;;
25391;SDS011;13329;48.402;11.718;2022-07-18T11:57:29;1.08;;;0.98;;
25391;SDS011;13329;48.402;11.718;2022-07-18T11:59:54;1.83;;;1.00;;
25391;SDS011;13329;48.402;11.718;2022-07-18T12:02:20;2.27;;;0.80;;
25391;SDS011;13329;48.402;11.718;2022-07-18T12:04:45;1.45;;;0.90;;
25391;SDS011;13329;48.402;11.718;2022-07-18T12:07:20;1.40;;;0.90;;
25391;SDS011;13329;48.402;11.718;2022-07-18T12:09:48;1.00;;;0.70;;
25391;SDS011;13329;48.402;11.718;2022-07-18T12:12:15;1.85;;;0.90;;
25391;SDS011;13329;48.402;11.718;2022-07-18T12:14:40;2.17;;;1.02;;
25391;SDS011;13329;48.402;11.718;2022-07-18T12:17:06;1.67;;;1.03;;
25391;SDS011;13329;48.402;11.718;2022-07-18T12:19:32;4.97;;;1.02;;
25391;SDS011;13329;48.402;11.718;2022-07-18T12:22:11;5.65;;;1.00;;
25391;SDS011;13329;48.402;11.718;2022-07-18T12:24:52;1.25;;;0.73;;
25391;SDS011;13329;48.402;11.718;2022-07-18T12:27:23;1.02;;;0.90;;
25391;SDS011;13329;48.402;11.718;2022-07-18T12:32:23;1.60;;;0.98;;
25391;SDS011;13329;48.402;11.718;2022-07-18T12:35:02;1.17;;;0.75;;
25391;SDS011;13329;48.402;11.718;2022-07-18T12:37:28;1.45;;;1.00;;
25391;SDS011;13329;48.402;11.718;2022-07-18T12:40:00;1.65;;;0.90;;
25391;SDS011;13329;48.402;11.718;2022-07-18T12:42:33;3.58;;;0.95;;
25391;SDS011;13329;48.402;11.718;2022-07-18T12:44:59;1.80;;;0.82;;
25391;SDS011;13329;48.402;11.718;2022-07-18T12:47:25;1.00;;;0.80;;
25391;SDS011;13329;48.402;11.718;2022-07-18T12:49:50;2.75;;;0.90;;
25391;SDS011;13329;48.402;11.718;2022-07-18T12:52:16;1.40;;;0.97;;
25391;SDS011;13329;48.402;11.718;2022-07-18T12:54:41;1.63;;;0.90;;
25391;SDS011;13329;48.402;11.718;2022-07-18T12:57:06;4.20;;;1.00;;
25391;SDS011;13329;48.402;11.718;2022-07-18T12:59:32;1.67;;;0.83;;
25391;SDS011;13329;48.402;11.718;2022-07-18T13:01:57;1.23;;;0.80;;
25391;SDS011;13329;48.402;11.718;2022-07-18T13:04:22;0.77;;;0.63;;
25391;SDS011;13329;48.402;11.718;2022-07-18T13:06:47;0.90;;;0.70;;
25391;SDS011;13329;48.402;11.718;2022-07-18T13:09:12;1.30;;;0.80;;
25391;SDS011;13329;48.402;11.718;2022-07-18T13:11:37;1.77;;;0.80;;
25391;SDS011;13329;48.402;11.718;2022-07-18T13:14:05;2.38;;;0.90;;
25391;SDS011;13329;48.402;11.718;2022-07-18T13:16:30;1.58;;;0.88;;
25391;SDS011;13329;48.402;11.718;2022-07-18T13:18:55;2.70;;;0.80;;
25391;SDS011;13329;48.402;11.718;2022-07-18T13:21:21;1.60;;;1.00;;
25391;SDS011;13329;48.402;11.718;2022-07-18T13:23:46;1.20;;;0.70;;
25391;SDS011;13329;48.402;11.718;2022-07-18T13:26:11;1.10;;;0.80;;
25391;SDS011;13329;48.402;11.718;2022-07-18T13:28:36;2.00;;;0.90;;
25391;SDS011;13329;48.402;11.718;2022-07-18T13:31:01;1.03;;;0.63;;
25391;SDS011;13329;48.402;11.718;2022-07-18T13:33:26;1.60;;;0.90;;
25391;SDS011;13329;48.402;11.718;2022-07-18T13:35:52;1.50;;;0.82;;
25391;SDS011;13329;48.402;11.718;2022-07-18T13:38:17;1.37;;;0.83;;
25391;SDS011;13329;48.402;11.718;2022-07-18T13:40:42;0.83;;;0.60;;
25391;SDS011;13329;48.402;11.718;2022-07-18T13:43:07;2.40;;;0.90;;
25391;SDS011;13329;48.402;11.718;2022-07-18T13:45:32;2.97;;;0.90;;
25391;SDS011;13329;48.402;11.718;2022-07-18T13:47:57;2.73;;;1.00;;
25391;SDS011;13329;48.402;11.718;2022-07-18T13:50:23;1.80;;;0.67;;
25391;SDS011;13329;48.402;11.718;2022-07-18T13:52:48;2.40;;;0.70;;
25391;SDS011;13329;48.402;11.718;2022-07-18T13:55:13;2.70;;;0.83;;
25391;SDS011;13329;48.402;11.718;2022-07-18T13:57:38;1.43;;;0.90;;
25391;SDS011;13329;48.402;11.718;2022-07-18T14:00:04;1.30;;;0.73;;
25391;SDS011;13329;48.402;11.718;2022-07-18T14:02:33;1.30;;;0.85;;
25391;SDS011;13329;48.402;11.718;2022-07-18T14:04:58;0.85;;;0.73;;
25391;SDS011;13329;48.402;11.718;2022-07-18T14:07:23;1.97;;;0.93;;
25391;SDS011;13329;48.402;11.718;2022-07-18T14:09:48;1.83;;;0.90;;
25391;SDS011;13329;48.402;11.718;2022-07-18T14:12:14;2.38;;;0.85;;
25391;SDS011;13329;48.402;11.718;2022-07-18T14:14:39;1.00;;;0.70;;
25391;SDS011;13329;48.402;11.718;2022-07-18T14:17:04;1.10;;;0.67;;
25391;SDS011;13329;48.402;11.718;2022-07-18T14:19:29;1.43;;;0.87;;
25391;SDS011;13329;48.402;11.718;2022-07-18T14:21:54;2.90;;;0.87;;
25391;SDS011;13329;48.402;11.718;2022-07-18T14:24:20;2.33;;;0.70;;
25391;SDS011;13329;48.402;11.718;2022-07-18T14:26:45;1.10;;;0.80;;
25391;SDS011;13329;48.402;11.718;2022-07-18T14:29:11;1.30;;;0.83;;
25391;SDS011;13329;48.402;11.718;2022-07-18T14:31:36;3.60;;;1.00;;
25391;SDS011;13329;48.402;11.718;2022-07-18T14:34:01;1.65;;;0.82;;
25391;SDS011;13329;48.402;11.718;2022-07-18T14:36:26;1.53;;;1.00;;
25391;SDS011;13329;48.402;11.718;2022-07-18T14:38:52;1.07;;;0.90;;
25391;SDS011;13329;48.402;11.718;2022-07-18T14:41:17;0.93;;;0.80;;
25391;SDS011;13329;48.402;11.718;2022-07-18T14:43:42;4.20;;;1.00;;
25391;SDS011;13329;48.402;11.718;2022-07-18T14:46:07;1.20;;;0.80;;
25391;SDS011;13329;48.402;11.718;2022-07-18T14:48:32;2.07;;;0.80;;